createdAt,value
2022-10-30T00:01:14.096Z,18.15
2022-10-30T00:04:33.547Z,18.14
2022-10-30T00:09:32.909Z,18.09
2022-10-30T00:11:12.620Z,18.09
2022-10-30T00:12:52.378Z,18.07
2022-10-30T00:14:32.142Z,18.07
2022-10-30T00:16:11.909Z,18.06
2022-10-30T00:17:51.709Z,18.04
2022-10-30T00:19:31.440Z,18.04
2022-10-30T00:21:11.220Z,18.02
2022-10-30T00:22:51.000Z,18.02
2022-10-30T00:24:30.756Z,17.98
2022-10-30T00:26:10.517Z,17.99
2022-10-30T00:27:50.290Z,17.99
2022-10-30T00:31:09.821Z,17.96
2022-10-30T00:32:49.609Z,17.95
2022-10-30T00:34:29.427Z,17.95
2022-10-30T00:36:09.135Z,17.94
2022-10-30T00:37:48.977Z,17.92
2022-10-30T00:39:28.682Z,17.92
2022-10-30T00:41:08.466Z,17.89
2022-10-30T00:42:48.186Z,17.9
2022-10-30T00:44:27.956Z,17.89
2022-10-30T00:46:07.736Z,17.87
2022-10-30T00:47:47.507Z,17.84
2022-10-30T00:49:27.268Z,17.84
2022-10-30T00:51:07.054Z,17.82
2022-10-30T00:52:46.796Z,17.85
2022-10-30T00:54:26.624Z,17.82
2022-10-30T00:56:06.342Z,17.83
2022-10-30T00:57:46.098Z,17.79
2022-10-30T00:59:25.870Z,17.79
2022-10-30T01:01:05.635Z,17.76
2022-10-30T01:02:45.395Z,17.79
2022-10-30T01:04:25.168Z,17.77
2022-10-30T01:06:04.965Z,17.75
2022-10-30T01:07:44.702Z,17.73
2022-10-30T01:09:24.541Z,17.74
2022-10-30T01:11:04.254Z,17.73
2022-10-30T01:12:44.089Z,17.71
2022-10-30T01:14:23.784Z,17.7
2022-10-30T01:16:03.567Z,17.7
2022-10-30T01:17:43.316Z,17.69
2022-10-30T01:19:23.077Z,17.65
2022-10-30T01:21:02.857Z,17.64
2022-10-30T01:22:42.614Z,17.62
2022-10-30T01:24:22.450Z,17.62
2022-10-30T01:26:02.180Z,17.64
2022-10-30T01:27:41.909Z,17.62
2022-10-30T01:29:21.714Z,17.61
2022-10-30T01:31:01.505Z,17.6
2022-10-30T01:32:41.224Z,17.59
2022-10-30T01:34:21.014Z,17.54
2022-10-30T01:36:00.756Z,17.57
2022-10-30T01:39:20.304Z,17.52
2022-10-30T01:41:00.091Z,17.53
2022-10-30T01:42:39.816Z,17.52
2022-10-30T01:44:19.595Z,17.51
2022-10-30T01:45:59.356Z,17.48
2022-10-30T01:47:39.130Z,17.46
2022-10-30T01:49:18.891Z,17.46
2022-10-30T01:50:58.659Z,17.46
2022-10-30T01:52:38.425Z,17.45
2022-10-30T01:54:18.230Z,17.44
2022-10-30T01:55:57.963Z,17.43
2022-10-30T01:57:37.720Z,17.41
2022-10-30T01:59:17.512Z,17.4
2022-10-30T02:00:57.272Z,17.39
2022-10-30T02:02:37.037Z,17.37
2022-10-30T02:04:16.820Z,17.34
2022-10-30T02:05:56.585Z,17.36
2022-10-30T02:07:36.338Z,17.35
2022-10-30T02:09:16.118Z,17.35
2022-10-30T02:10:55.867Z,17.31
2022-10-30T02:12:35.642Z,17.29
2022-10-30T02:14:15.417Z,17.32
2022-10-30T02:15:55.174Z,17.29
2022-10-30T02:17:34.935Z,17.28
2022-10-30T02:19:14.781Z,17.26
2022-10-30T02:20:54.481Z,17.26
2022-10-30T02:22:34.239Z,17.24
2022-10-30T02:24:14.004Z,17.25
2022-10-30T02:25:53.767Z,17.21
2022-10-30T02:27:33.541Z,17.2
2022-10-30T02:29:13.315Z,17.19
2022-10-30T02:30:53.070Z,17.19
2022-10-30T02:32:32.847Z,17.18
2022-10-30T02:34:12.620Z,17.19
2022-10-30T02:37:32.138Z,17.15
2022-10-30T02:39:11.907Z,17.16
2022-10-30T02:40:51.685Z,17.14
2022-10-30T02:42:31.488Z,17.11
2022-10-30T02:44:11.242Z,17.1
2022-10-30T02:45:50.989Z,17.09
2022-10-30T02:47:30.742Z,17.08
2022-10-30T02:49:10.520Z,17.08
2022-10-30T02:50:50.283Z,17.08
2022-10-30T02:52:30.048Z,17.04
2022-10-30T02:54:09.818Z,17.04
2022-10-30T02:55:49.586Z,17.04
2022-10-30T02:57:29.351Z,17.03
2022-10-30T02:59:09.123Z,17.03
2022-10-30T03:00:48.875Z,17.02
2022-10-30T03:02:28.658Z,17.01
2022-10-30T03:04:08.424Z,16.99
2022-10-30T03:05:48.257Z,17
2022-10-30T03:07:27.952Z,16.98
2022-10-30T03:09:07.725Z,16.96
2022-10-30T03:10:47.502Z,16.95
2022-10-30T03:12:27.269Z,16.94
2022-10-30T03:14:07.026Z,16.92
2022-10-30T03:15:46.803Z,16.91
2022-10-30T03:17:26.574Z,16.9
2022-10-30T03:19:06.324Z,16.9
2022-10-30T03:20:46.198Z,16.89
2022-10-30T03:22:25.875Z,16.86
2022-10-30T03:24:05.655Z,16.86
2022-10-30T03:25:45.388Z,16.85
2022-10-30T03:27:25.166Z,16.83
2022-10-30T03:29:04.934Z,16.84
2022-10-30T03:30:44.710Z,16.83
2022-10-30T03:32:24.465Z,16.82
2022-10-30T03:34:04.239Z,16.79
2022-10-30T03:35:44.015Z,16.78
2022-10-30T03:37:23.773Z,16.78
2022-10-30T03:39:03.558Z,16.75
2022-10-30T03:40:43.322Z,16.75
2022-10-30T03:42:23.086Z,16.71
2022-10-30T03:44:02.837Z,16.7
2022-10-30T03:45:42.600Z,16.71
2022-10-30T03:47:22.381Z,16.7
2022-10-30T03:49:02.147Z,16.7
2022-10-30T03:50:41.908Z,16.7
2022-10-30T03:52:21.758Z,16.69
2022-10-30T03:54:01.473Z,16.65
2022-10-30T03:55:41.217Z,16.65
2022-10-30T03:57:21.003Z,16.64
2022-10-30T03:59:00.742Z,16.64
2022-10-30T04:00:40.521Z,16.62
2022-10-30T04:02:20.280Z,16.62
2022-10-30T04:04:00.058Z,16.58
2022-10-30T04:05:39.838Z,16.57
2022-10-30T04:07:19.577Z,16.58
2022-10-30T04:08:59.337Z,16.57
2022-10-30T04:10:39.192Z,16.54
2022-10-30T04:12:18.868Z,16.56
2022-10-30T04:13:58.636Z,16.54
2022-10-30T04:17:18.179Z,16.51
2022-10-30T04:18:57.936Z,16.51
2022-10-30T04:20:37.717Z,16.51
2022-10-30T04:22:17.563Z,16.48
2022-10-30T04:23:57.244Z,16.48
2022-10-30T04:25:37.023Z,16.48
2022-10-30T04:27:16.770Z,16.46
2022-10-30T04:28:56.553Z,16.45
2022-10-30T04:30:36.299Z,16.45
2022-10-30T04:32:16.090Z,16.43
2022-10-30T04:33:55.853Z,16.45
2022-10-30T04:35:35.611Z,16.44
2022-10-30T04:37:15.386Z,16.41
2022-10-30T04:38:55.154Z,16.43
2022-10-30T04:40:34.911Z,16.41
2022-10-30T04:42:14.718Z,16.42
2022-10-30T04:43:54.480Z,16.37
2022-10-30T04:45:34.230Z,16.4
2022-10-30T04:47:13.992Z,16.37
2022-10-30T04:48:53.745Z,16.37
2022-10-30T04:50:33.615Z,16.36
2022-10-30T04:52:13.308Z,16.37
2022-10-30T04:53:53.061Z,16.34
2022-10-30T04:55:32.828Z,16.34
2022-10-30T04:57:12.636Z,16.37
2022-10-30T04:58:52.354Z,16.33
2022-10-30T05:00:32.124Z,16.32
2022-10-30T05:03:51.666Z,16.33
2022-10-30T05:05:31.437Z,16.32
2022-10-30T05:08:50.964Z,16.32
2022-10-30T05:10:30.717Z,16.32
2022-10-30T05:12:10.486Z,16.32
2022-10-30T05:13:50.273Z,16.28
2022-10-30T05:15:30.020Z,16.31
2022-10-30T05:17:09.792Z,16.27
2022-10-30T05:18:49.558Z,16.29
2022-10-30T05:20:29.329Z,16.27
2022-10-30T05:23:48.879Z,16.29
2022-10-30T05:25:28.623Z,16.25
2022-10-30T05:27:08.389Z,16.25
2022-10-30T05:28:48.162Z,16.25
2022-10-30T05:30:27.930Z,16.27
2022-10-30T05:32:07.690Z,16.25
2022-10-30T05:33:47.462Z,16.25
2022-10-30T05:35:27.221Z,16.21
2022-10-30T05:37:07.003Z,16.24
2022-10-30T05:38:46.758Z,16.24
2022-10-30T05:40:26.535Z,16.23
2022-10-30T05:42:06.304Z,16.2
2022-10-30T05:43:46.065Z,16.23
2022-10-30T05:45:25.833Z,16.23
2022-10-30T05:47:05.595Z,16.24
2022-10-30T05:48:45.391Z,16.24
2022-10-30T05:50:25.127Z,16.26
2022-10-30T05:52:04.904Z,16.33
2022-10-30T05:53:44.656Z,16.32
2022-10-30T05:55:24.421Z,16.33
2022-10-30T05:57:04.194Z,16.36
2022-10-30T05:58:43.998Z,16.37
2022-10-30T06:00:23.739Z,16.41
2022-10-30T06:02:03.492Z,16.41
2022-10-30T06:03:43.272Z,16.43
2022-10-30T06:05:23.039Z,16.45
2022-10-30T06:07:02.817Z,16.45
2022-10-30T06:08:42.571Z,16.49
2022-10-30T06:10:22.340Z,16.51
2022-10-30T06:12:02.097Z,16.54
2022-10-30T06:13:41.864Z,16.54
2022-10-30T06:15:21.649Z,16.54
2022-10-30T06:17:01.403Z,16.54
2022-10-30T06:20:20.943Z,16.57
2022-10-30T06:22:00.720Z,16.57
2022-10-30T06:23:40.471Z,16.6
2022-10-30T06:25:20.280Z,16.62
2022-10-30T06:27:00.078Z,16.65
2022-10-30T06:28:39.785Z,16.64
2022-10-30T06:30:19.543Z,16.64
2022-10-30T06:31:59.335Z,16.64
2022-10-30T06:33:39.100Z,16.67
2022-10-30T06:35:18.927Z,16.69
2022-10-30T06:36:58.615Z,16.69
2022-10-30T06:38:38.392Z,16.68
2022-10-30T06:40:18.148Z,16.7
2022-10-30T06:41:57.919Z,16.7
2022-10-30T06:43:37.697Z,16.74
2022-10-30T06:45:17.486Z,16.75
2022-10-30T06:48:36.993Z,16.76
2022-10-30T06:50:16.788Z,16.79
2022-10-30T06:51:56.553Z,16.78
2022-10-30T06:53:36.306Z,16.79
2022-10-30T06:55:16.089Z,16.82
2022-10-30T06:56:55.854Z,16.85
2022-10-30T06:58:35.627Z,16.83
2022-10-30T07:00:15.435Z,16.86
2022-10-30T07:01:55.173Z,16.87
2022-10-30T07:03:34.995Z,16.89
2022-10-30T07:05:14.737Z,16.89
2022-10-30T07:08:34.283Z,16.91
2022-10-30T07:10:14.052Z,16.95
2022-10-30T07:11:53.789Z,16.96
2022-10-30T07:13:33.562Z,16.98
2022-10-30T07:16:53.103Z,17
2022-10-30T07:18:32.869Z,17.01
2022-10-30T07:20:12.665Z,17.03
2022-10-30T07:21:52.455Z,17.02
2022-10-30T07:23:32.181Z,17.03
2022-10-30T07:25:11.948Z,17.04
2022-10-30T07:26:51.728Z,17.04
2022-10-30T07:28:31.495Z,17.04
2022-10-30T07:30:11.267Z,17.04
2022-10-30T07:31:51.060Z,17.1
2022-10-30T07:33:30.801Z,17.08
2022-10-30T07:35:10.562Z,17.11
2022-10-30T07:36:50.340Z,17.12
2022-10-30T07:38:30.107Z,17.12
2022-10-30T07:40:09.874Z,17.11
2022-10-30T07:41:49.691Z,17.12
2022-10-30T07:43:29.432Z,17.15
2022-10-30T07:45:09.190Z,17.17
2022-10-30T07:46:48.972Z,17.16
2022-10-30T07:48:28.745Z,17.21
2022-10-30T07:50:08.498Z,17.26
2022-10-30T07:51:48.280Z,17.34
2022-10-30T07:55:07.817Z,17.45
2022-10-30T07:56:47.593Z,17.51
2022-10-30T07:58:27.347Z,17.58
2022-10-30T08:00:07.138Z,17.62
2022-10-30T08:01:46.914Z,17.7
2022-10-30T08:03:26.671Z,17.77
2022-10-30T08:05:06.429Z,17.82
2022-10-30T08:06:46.254Z,17.89
2022-10-30T08:08:25.979Z,17.98
2022-10-30T08:10:05.751Z,18.04
2022-10-30T08:11:45.530Z,18.09
2022-10-30T08:13:25.300Z,18.16
2022-10-30T08:15:05.062Z,18.19
2022-10-30T08:16:44.833Z,18.29
2022-10-30T08:18:24.596Z,18.31
2022-10-30T08:20:04.441Z,18.35
2022-10-30T08:21:44.130Z,18.43
2022-10-30T08:23:23.918Z,18.51
2022-10-30T08:25:03.686Z,18.54
2022-10-30T08:26:43.458Z,18.57
2022-10-30T08:28:23.229Z,18.62
2022-10-30T08:30:02.995Z,18.64
2022-10-30T08:31:42.753Z,18.71
2022-10-30T08:33:22.538Z,18.76
2022-10-30T08:35:02.332Z,18.78
2022-10-30T08:38:21.851Z,18.89
2022-10-30T08:40:01.665Z,18.9
2022-10-30T08:41:41.378Z,18.94
2022-10-30T08:43:21.220Z,18.95
2022-10-30T08:45:00.919Z,19.04
2022-10-30T08:46:40.740Z,19.06
2022-10-30T08:51:40.047Z,19.14
2022-10-30T08:53:19.784Z,19.18
2022-10-30T08:54:59.566Z,19.23
2022-10-30T08:56:39.355Z,19.27
2022-10-30T08:58:19.081Z,19.27
2022-10-30T08:59:58.850Z,19.29
2022-10-30T09:01:38.639Z,19.34
2022-10-30T09:03:18.404Z,19.39
2022-10-30T09:04:58.177Z,19.42
2022-10-30T09:06:37.950Z,19.45
2022-10-30T09:08:17.722Z,19.48
2022-10-30T09:09:57.484Z,19.52
2022-10-30T09:11:37.258Z,19.53
2022-10-30T09:13:17.019Z,19.58
2022-10-30T09:14:56.795Z,19.58
2022-10-30T09:16:36.644Z,19.65
2022-10-30T09:18:16.350Z,19.66
2022-10-30T09:19:56.128Z,19.69
2022-10-30T09:21:35.878Z,19.7
2022-10-30T09:23:15.647Z,19.74
2022-10-30T09:24:55.491Z,19.78
2022-10-30T09:26:35.263Z,19.79
2022-10-30T09:28:14.968Z,19.81
2022-10-30T09:29:54.741Z,19.85
2022-10-30T09:31:34.509Z,19.89
2022-10-30T09:33:14.274Z,19.92
2022-10-30T09:34:54.042Z,19.91
2022-10-30T09:36:33.802Z,19.95
2022-10-30T09:38:13.587Z,19.98
2022-10-30T09:39:53.383Z,20.01
2022-10-30T09:41:33.126Z,20.04
2022-10-30T09:43:12.903Z,20.04
2022-10-30T09:44:52.693Z,20.07
2022-10-30T09:46:32.423Z,20.1
2022-10-30T09:48:12.197Z,20.14
2022-10-30T09:49:52.001Z,20.12
2022-10-30T09:51:31.752Z,20.16
2022-10-30T09:53:11.515Z,20.2
2022-10-30T09:54:51.284Z,20.21
2022-10-30T09:56:31.082Z,20.24
2022-10-30T09:58:10.830Z,20.28
2022-10-30T09:59:50.641Z,20.29
2022-10-30T10:01:30.357Z,20.32
2022-10-30T10:03:10.128Z,20.35
2022-10-30T10:04:49.975Z,20.37
2022-10-30T10:06:29.703Z,20.39
2022-10-30T10:08:09.477Z,20.43
2022-10-30T10:09:49.230Z,20.46
2022-10-30T10:11:29.032Z,20.48
2022-10-30T10:13:08.759Z,20.53
2022-10-30T10:14:48.556Z,20.56
2022-10-30T10:16:28.308Z,20.58
2022-10-30T10:18:08.074Z,20.62
2022-10-30T10:19:47.893Z,20.65
2022-10-30T10:21:27.620Z,20.67
2022-10-30T10:23:07.390Z,20.73
2022-10-30T10:24:47.167Z,20.75
2022-10-30T10:26:26.951Z,20.77
2022-10-30T10:28:06.687Z,20.82
2022-10-30T10:29:46.469Z,20.84
2022-10-30T10:31:26.274Z,20.88
2022-10-30T10:33:06.012Z,20.91
2022-10-30T10:34:45.817Z,20.93
2022-10-30T10:36:25.557Z,21
2022-10-30T10:38:05.320Z,21.03
2022-10-30T10:39:45.086Z,21.05
2022-10-30T10:41:24.933Z,21.07
2022-10-30T10:43:04.634Z,21.13
2022-10-30T10:44:44.390Z,21.13
2022-10-30T10:46:24.163Z,21.17
2022-10-30T10:48:03.929Z,21.23
2022-10-30T10:49:43.705Z,21.24
2022-10-30T10:51:23.492Z,21.3
2022-10-30T10:53:03.252Z,21.33
2022-10-30T10:54:43.063Z,21.37
2022-10-30T10:56:22.784Z,21.43
2022-10-30T10:58:02.555Z,21.43
2022-10-30T10:59:42.378Z,21.46
2022-10-30T11:01:22.098Z,21.51
2022-10-30T11:03:01.872Z,21.55
2022-10-30T11:04:41.656Z,21.6
2022-10-30T11:06:21.402Z,21.6
2022-10-30T11:08:01.189Z,21.64
2022-10-30T11:09:40.971Z,21.63
2022-10-30T11:11:20.741Z,21.63
2022-10-30T11:13:00.487Z,21.65
2022-10-30T11:14:40.260Z,21.62
2022-10-30T11:17:59.795Z,21.65
2022-10-30T11:19:39.587Z,21.66
2022-10-30T11:21:19.354Z,21.73
2022-10-30T11:22:59.104Z,21.78
2022-10-30T11:24:38.892Z,21.85
2022-10-30T11:26:18.666Z,21.92
2022-10-30T11:27:58.475Z,21.95
2022-10-30T11:29:38.203Z,22
2022-10-30T11:31:17.971Z,22.07
2022-10-30T11:32:57.738Z,22.09
2022-10-30T11:34:37.512Z,22.14
2022-10-30T11:36:17.270Z,22.17
2022-10-30T11:37:57.040Z,22.22
2022-10-30T11:39:36.829Z,22.27
2022-10-30T11:41:16.637Z,22.34
2022-10-30T11:42:56.365Z,22.35
2022-10-30T11:44:36.136Z,22.44
2022-10-30T11:46:15.905Z,22.46
2022-10-30T11:47:55.731Z,22.5
2022-10-30T11:49:35.444Z,22.56
2022-10-30T11:51:15.205Z,22.61
2022-10-30T11:52:54.980Z,22.61
2022-10-30T11:54:34.747Z,22.66
2022-10-30T11:56:14.525Z,22.72
2022-10-30T11:57:54.292Z,22.79
2022-10-30T11:59:34.088Z,22.8
2022-10-30T12:01:13.827Z,22.85
2022-10-30T12:02:53.606Z,22.88
2022-10-30T12:04:33.408Z,22.95
2022-10-30T12:07:52.921Z,23.05
2022-10-30T12:09:32.690Z,23.09
2022-10-30T12:11:12.451Z,23.13
2022-10-30T12:12:52.235Z,23.17
2022-10-30T12:14:31.988Z,23.2
2022-10-30T12:17:51.539Z,23.3
2022-10-30T12:19:31.316Z,23.37
2022-10-30T12:21:11.080Z,23.39
2022-10-30T12:22:50.859Z,23.47
2022-10-30T12:24:30.618Z,23.48
2022-10-30T12:26:10.383Z,23.52
2022-10-30T12:27:50.145Z,23.58
2022-10-30T12:29:29.951Z,23.59
2022-10-30T12:31:09.710Z,23.67
2022-10-30T12:32:49.469Z,23.69
2022-10-30T12:34:29.304Z,23.73
2022-10-30T12:36:09.049Z,23.79
2022-10-30T12:37:48.774Z,23.84
2022-10-30T12:39:28.580Z,23.9
2022-10-30T12:41:08.319Z,23.93
2022-10-30T12:42:48.137Z,23.99
2022-10-30T12:44:27.861Z,24.03
2022-10-30T12:46:07.631Z,24.07
2022-10-30T12:47:47.403Z,24.12
2022-10-30T12:49:27.186Z,24.16
2022-10-30T12:51:06.950Z,24.2
2022-10-30T12:52:46.724Z,24.25
2022-10-30T12:54:26.496Z,24.33
2022-10-30T12:56:06.250Z,24.34
2022-10-30T12:57:46.020Z,24.4
2022-10-30T12:59:25.838Z,24.45
2022-10-30T13:01:05.573Z,24.46
2022-10-30T13:02:45.379Z,24.5
2022-10-30T13:04:25.127Z,24.54
2022-10-30T13:06:04.882Z,24.6
2022-10-30T13:07:44.646Z,24.66
2022-10-30T13:09:24.444Z,24.69
2022-10-30T13:11:04.207Z,24.72
2022-10-30T13:12:43.955Z,24.76
2022-10-30T13:14:23.728Z,24.81
2022-10-30T13:16:03.516Z,24.83
2022-10-30T13:17:43.311Z,24.91
2022-10-30T13:19:23.049Z,24.91
2022-10-30T13:21:02.815Z,24.96
2022-10-30T13:22:42.619Z,25.01
2022-10-30T13:24:22.432Z,25.03
2022-10-30T13:26:02.145Z,25.07
2022-10-30T13:27:41.898Z,25.1
2022-10-30T13:29:21.677Z,25.12
2022-10-30T13:31:01.430Z,25.14
2022-10-30T13:32:41.239Z,25.19
2022-10-30T13:34:20.979Z,25.22
2022-10-30T13:36:00.783Z,25.23
2022-10-30T13:37:40.533Z,25.26
2022-10-30T13:39:20.315Z,25.29
2022-10-30T13:41:00.058Z,25.33
2022-10-30T13:42:39.828Z,25.33
2022-10-30T13:44:19.600Z,25.36
2022-10-30T13:47:39.148Z,25.4
2022-10-30T13:49:18.914Z,25.46
2022-10-30T13:50:58.735Z,25.46
2022-10-30T13:52:38.454Z,25.5
2022-10-30T13:54:18.227Z,25.51
2022-10-30T13:55:57.992Z,25.55
2022-10-30T13:57:37.789Z,25.54
2022-10-30T13:59:17.593Z,25.58
2022-10-30T14:00:57.300Z,25.58
2022-10-30T14:02:37.113Z,25.57
2022-10-30T14:04:16.921Z,25.6
2022-10-30T14:05:56.618Z,25.62
2022-10-30T14:07:36.406Z,25.63
2022-10-30T14:09:16.178Z,25.63
2022-10-30T14:10:55.935Z,25.65
2022-10-30T14:12:35.690Z,25.67
2022-10-30T14:14:15.460Z,25.7
2022-10-30T14:15:55.326Z,25.7
2022-10-30T14:17:35.004Z,25.71
2022-10-30T14:19:14.793Z,25.69
2022-10-30T14:20:54.597Z,25.73
2022-10-30T14:22:34.363Z,25.73
2022-10-30T14:24:14.112Z,25.74
2022-10-30T14:25:53.866Z,25.75
2022-10-30T14:27:33.638Z,25.75
2022-10-30T14:29:13.394Z,25.76
2022-10-30T14:30:53.175Z,25.76
2022-10-30T14:32:33.021Z,25.77
2022-10-30T14:34:12.740Z,25.76
2022-10-30T14:35:52.481Z,25.75
2022-10-30T14:37:32.257Z,25.79
2022-10-30T14:39:12.027Z,25.76
2022-10-30T14:40:51.812Z,25.77
2022-10-30T14:42:31.619Z,25.8
2022-10-30T14:45:51.101Z,25.76
2022-10-30T14:47:30.881Z,25.79
2022-10-30T14:49:10.685Z,25.78
2022-10-30T14:50:50.422Z,25.81
2022-10-30T14:52:30.196Z,25.78
2022-10-30T14:54:09.980Z,25.77
2022-10-30T14:55:49.782Z,25.8
2022-10-30T14:57:29.495Z,25.79
2022-10-30T14:59:09.261Z,25.77
2022-10-30T15:00:49.038Z,25.79
2022-10-30T15:02:28.910Z,25.77
2022-10-30T15:04:08.574Z,25.75
2022-10-30T15:05:48.373Z,25.78
2022-10-30T15:07:28.139Z,25.75
2022-10-30T15:09:07.919Z,25.74
2022-10-30T15:10:47.684Z,25.74
2022-10-30T15:12:27.447Z,25.74
2022-10-30T15:14:07.207Z,25.7
2022-10-30T15:15:46.969Z,25.7
2022-10-30T15:17:26.741Z,25.65
2022-10-30T15:19:06.586Z,25.64
2022-10-30T15:20:46.276Z,25.65
2022-10-30T15:22:26.071Z,25.6
2022-10-30T15:24:05.833Z,25.58
2022-10-30T15:25:45.589Z,25.56
2022-10-30T15:27:25.385Z,25.55
2022-10-30T15:29:05.137Z,25.5
2022-10-30T15:30:44.942Z,25.47
2022-10-30T15:32:24.688Z,25.44
2022-10-30T15:34:04.477Z,25.38
2022-10-30T15:35:44.206Z,25.34
2022-10-30T15:37:24.005Z,25.33
2022-10-30T15:39:03.824Z,25.26
2022-10-30T15:40:43.563Z,25.26
2022-10-30T15:42:23.272Z,25.2
2022-10-30T15:44:03.072Z,25.17
2022-10-30T15:45:42.815Z,25.13
2022-10-30T15:47:22.598Z,25.12
2022-10-30T15:49:02.345Z,25.08
2022-10-30T15:50:42.129Z,25.05
2022-10-30T15:52:21.896Z,25
2022-10-30T15:54:01.677Z,24.96
2022-10-30T15:55:41.411Z,24.92
2022-10-30T15:57:21.197Z,24.87
2022-10-30T15:59:00.975Z,24.85
2022-10-30T16:00:40.721Z,24.8
2022-10-30T16:02:20.494Z,24.75
2022-10-30T16:04:00.262Z,24.71
2022-10-30T16:05:40.029Z,24.64
2022-10-30T16:07:19.797Z,24.58
2022-10-30T16:08:59.552Z,24.53
2022-10-30T16:10:39.349Z,24.48
2022-10-30T16:12:19.150Z,24.41
2022-10-30T16:13:58.862Z,24.32
2022-10-30T16:15:38.624Z,24.28
2022-10-30T16:17:18.386Z,24.2
2022-10-30T16:18:58.154Z,24.17
2022-10-30T16:20:37.932Z,24.1
2022-10-30T16:22:17.748Z,24.06
2022-10-30T16:23:57.587Z,23.98
2022-10-30T16:25:37.231Z,23.94
2022-10-30T16:27:17.010Z,23.87
2022-10-30T16:28:56.783Z,23.81
2022-10-30T16:30:36.534Z,23.79
2022-10-30T16:32:16.294Z,23.72
2022-10-30T16:33:56.105Z,23.66
2022-10-30T16:35:35.830Z,23.6
2022-10-30T16:37:15.635Z,23.55
2022-10-30T16:38:55.409Z,23.52
2022-10-30T16:40:35.133Z,23.46
2022-10-30T16:42:14.895Z,23.41
2022-10-30T16:43:54.678Z,23.36
2022-10-30T16:45:34.489Z,23.3
2022-10-30T16:47:14.247Z,23.27
2022-10-30T16:48:53.989Z,23.23
2022-10-30T16:50:33.752Z,23.15
2022-10-30T16:52:13.603Z,23.11
2022-10-30T16:53:53.329Z,23.08
2022-10-30T16:55:33.091Z,23.01
2022-10-30T16:57:12.818Z,22.98
2022-10-30T17:00:32.399Z,22.86
2022-10-30T17:02:12.126Z,22.83
2022-10-30T17:03:51.912Z,22.8
2022-10-30T17:05:31.709Z,22.75
2022-10-30T17:07:11.444Z,22.69
2022-10-30T17:08:51.188Z,22.64
2022-10-30T17:12:10.722Z,22.57
2022-10-30T17:13:50.558Z,22.53
2022-10-30T17:15:30.264Z,22.46
2022-10-30T17:17:10.025Z,22.42
2022-10-30T17:18:49.792Z,22.38
2022-10-30T17:20:29.560Z,22.36
2022-10-30T17:22:09.327Z,22.31
2022-10-30T17:23:49.144Z,22.27
2022-10-30T17:25:28.857Z,22.2
2022-10-30T17:27:08.625Z,22.19
2022-10-30T17:28:48.388Z,22.14
2022-10-30T17:30:28.164Z,22.08
2022-10-30T17:32:08.016Z,22.06
2022-10-30T17:33:47.706Z,22.02
2022-10-30T17:37:07.249Z,21.93
2022-10-30T17:38:47.020Z,21.88
2022-10-30T17:40:26.768Z,21.84
2022-10-30T17:42:06.549Z,21.79
2022-10-30T17:43:46.317Z,21.75
2022-10-30T17:45:26.069Z,21.71
2022-10-30T17:47:05.838Z,21.68
2022-10-30T17:48:45.614Z,21.64
2022-10-30T17:50:25.396Z,21.6
2022-10-30T17:52:05.149Z,21.57
2022-10-30T17:53:44.914Z,21.54
2022-10-30T17:55:24.760Z,21.48
2022-10-30T17:57:04.449Z,21.45
2022-10-30T17:58:44.219Z,21.4
2022-10-30T18:00:23.968Z,21.37
2022-10-30T18:02:03.749Z,21.35
2022-10-30T18:03:43.506Z,21.29
2022-10-30T18:05:23.339Z,21.27
2022-10-30T18:07:03.044Z,21.21
2022-10-30T18:08:42.818Z,21.18
2022-10-30T18:10:22.589Z,21.14
2022-10-30T18:12:02.366Z,21.12
2022-10-30T18:13:42.112Z,21.06
2022-10-30T18:15:21.881Z,21.04
2022-10-30T18:17:01.647Z,20.99
2022-10-30T18:18:41.430Z,20.97
2022-10-30T18:20:21.195Z,20.91
2022-10-30T18:22:00.947Z,20.89
2022-10-30T18:23:40.733Z,20.84
2022-10-30T18:25:20.493Z,20.82
2022-10-30T18:27:00.265Z,20.78
2022-10-30T18:28:40.018Z,20.72
2022-10-30T18:30:19.789Z,20.69
2022-10-30T18:31:59.602Z,20.65
2022-10-30T18:33:39.332Z,20.64
2022-10-30T18:35:19.091Z,20.61
2022-10-30T18:36:58.922Z,20.57
2022-10-30T18:38:38.625Z,20.53
2022-10-30T18:40:18.393Z,20.5
2022-10-30T18:41:58.158Z,20.45
2022-10-30T18:43:37.930Z,20.45
2022-10-30T18:45:17.723Z,20.41
2022-10-30T18:46:57.463Z,20.37
2022-10-30T18:48:37.230Z,20.32
2022-10-30T18:50:16.999Z,20.29
2022-10-30T18:51:56.772Z,20.27
2022-10-30T18:53:36.537Z,20.24
2022-10-30T18:55:16.388Z,20.18
2022-10-30T18:56:56.091Z,20.16
2022-10-30T18:58:35.841Z,20.12
2022-10-30T19:00:15.605Z,20.08
2022-10-30T19:01:55.370Z,20.04
2022-10-30T19:03:35.230Z,20.04
2022-10-30T19:05:14.922Z,19.98
2022-10-30T19:06:54.674Z,19.96
2022-10-30T19:08:34.450Z,19.92
2022-10-30T19:10:14.263Z,19.89
2022-10-30T19:11:54.098Z,19.87
2022-10-30T19:13:33.775Z,19.83
2022-10-30T19:15:13.508Z,19.79
2022-10-30T19:16:53.292Z,19.78
2022-10-30T19:18:33.047Z,19.75
2022-10-30T19:20:12.809Z,19.7
2022-10-30T19:21:52.603Z,19.69
2022-10-30T19:23:32.358Z,19.64
2022-10-30T19:25:12.121Z,19.62
2022-10-30T19:26:51.893Z,19.59
2022-10-30T19:28:31.670Z,19.56
2022-10-30T19:31:51.220Z,19.49
2022-10-30T19:33:30.964Z,19.46
2022-10-30T19:35:10.729Z,19.43
2022-10-30T19:36:50.499Z,19.42
2022-10-30T19:38:30.259Z,19.37
2022-10-30T19:40:10.026Z,19.34
2022-10-30T19:41:49.839Z,19.32
2022-10-30T19:43:29.589Z,19.29
2022-10-30T19:45:09.319Z,19.28
2022-10-30T19:46:49.118Z,19.25
2022-10-30T19:48:28.869Z,19.19
2022-10-30T19:50:08.633Z,19.18
2022-10-30T19:51:48.409Z,19.16
2022-10-30T19:53:28.164Z,19.1
2022-10-30T19:55:07.946Z,19.08
2022-10-30T19:56:47.702Z,19.04
2022-10-30T19:58:27.495Z,19.06
2022-10-30T20:00:07.231Z,19.02
2022-10-30T20:01:47.048Z,18.96
2022-10-30T20:03:26.770Z,18.95
2022-10-30T20:05:06.541Z,18.92
2022-10-30T20:06:46.352Z,18.92
2022-10-30T20:08:26.098Z,18.87
2022-10-30T20:10:05.832Z,18.86
2022-10-30T20:11:45.609Z,18.84
2022-10-30T20:13:25.398Z,18.79
2022-10-30T20:15:05.140Z,18.77
2022-10-30T20:16:44.929Z,18.75
2022-10-30T20:18:24.688Z,18.7
2022-10-30T20:20:04.441Z,18.7
2022-10-30T20:21:44.206Z,18.66
2022-10-30T20:23:23.990Z,18.64
2022-10-30T20:25:03.742Z,18.6
2022-10-30T20:26:43.517Z,18.58
2022-10-30T20:28:23.291Z,18.56
2022-10-30T20:30:03.069Z,18.54
2022-10-30T20:31:42.817Z,18.51
2022-10-30T20:33:22.591Z,18.46
2022-10-30T20:35:02.397Z,18.45
2022-10-30T20:36:42.112Z,18.44
2022-10-30T20:38:21.899Z,18.39
2022-10-30T20:40:01.740Z,18.39
2022-10-30T20:41:41.419Z,18.36
2022-10-30T20:43:21.190Z,18.31
2022-10-30T20:45:00.952Z,18.32
2022-10-30T20:46:40.724Z,18.28
2022-10-30T20:48:20.531Z,18.25
2022-10-30T20:50:00.322Z,18.21
2022-10-30T20:51:40.028Z,18.2
2022-10-30T20:53:19.809Z,18.16
2022-10-30T20:54:59.649Z,18.16
2022-10-30T20:56:39.329Z,18.12
2022-10-30T20:58:19.134Z,18.09
2022-10-30T20:59:58.861Z,18.06
2022-10-30T21:01:38.627Z,18.04
2022-10-30T21:03:18.392Z,18.03
2022-10-30T21:04:58.169Z,18.01
2022-10-30T21:06:37.934Z,17.99
2022-10-30T21:08:17.697Z,17.95
2022-10-30T21:11:37.384Z,17.91
2022-10-30T21:13:17.163Z,17.9
2022-10-30T21:14:56.929Z,17.85
2022-10-30T21:16:36.665Z,17.84
2022-10-30T21:18:16.308Z,17.79
2022-10-30T21:19:56.226Z,17.79
2022-10-30T21:21:36.000Z,17.76
2022-10-30T21:23:15.772Z,17.74
2022-10-30T21:24:55.544Z,17.7
2022-10-30T21:26:35.281Z,17.69
2022-10-30T21:28:15.063Z,17.66
2022-10-30T21:29:54.811Z,17.65
2022-10-30T21:31:34.501Z,17.61
2022-10-30T21:33:14.349Z,17.62
2022-10-30T21:36:33.895Z,17.54
2022-10-30T21:38:13.673Z,17.52
2022-10-30T21:39:53.313Z,17.49
2022-10-30T21:41:33.096Z,17.5
2022-10-30T21:43:12.826Z,17.45
2022-10-30T21:44:52.591Z,17.42
2022-10-30T21:46:32.443Z,17.43
2022-10-30T21:48:12.163Z,17.37
2022-10-30T21:49:51.959Z,17.36
2022-10-30T21:51:31.653Z,17.35
2022-10-30T21:53:11.437Z,17.34
2022-10-30T21:54:51.230Z,17.32
2022-10-30T21:56:30.997Z,17.29
2022-10-30T21:58:10.765Z,17.27
2022-10-30T21:59:50.578Z,17.24
2022-10-30T22:01:30.336Z,17.2
2022-10-30T22:03:10.070Z,17.19
2022-10-30T22:04:49.865Z,17.17
2022-10-30T22:06:29.672Z,17.18
2022-10-30T22:08:09.325Z,17.12
2022-10-30T22:09:49.100Z,17.1
2022-10-30T22:11:28.872Z,17.09
2022-10-30T22:13:08.687Z,17.07
2022-10-30T22:14:48.497Z,17.06
2022-10-30T22:16:28.227Z,17.04
2022-10-30T22:18:08.022Z,17